createdAt,value
2022-08-09T00:00:16.194Z,367
2022-08-09T00:03:42.651Z,367.5
2022-08-09T00:05:26.051Z,369.4
2022-08-09T00:07:09.450Z,370.7
2022-08-09T00:08:52.842Z,369.4
2022-08-09T00:10:36.258Z,368.3
2022-08-09T00:12:19.649Z,369.3
2022-08-09T00:14:03.049Z,368.3
2022-08-09T00:15:46.427Z,366.7
2022-08-09T00:20:55.693Z,365.9
2022-08-09T00:22:39.084Z,366
2022-08-09T00:24:22.478Z,367.6
2022-08-09T00:26:05.880Z,367.6
2022-08-09T00:27:49.275Z,370.3
2022-08-09T00:29:32.661Z,371.1
2022-08-09T00:31:16.048Z,370.5
2022-08-09T00:32:59.469Z,371.5
2022-08-09T00:36:25.925Z,366.9
2022-08-09T00:38:09.328Z,368.4
2022-08-09T00:39:52.734Z,369.8
2022-08-09T00:41:36.119Z,369.6
2022-08-09T00:43:19.525Z,367.4
2022-08-09T00:45:02.915Z,368.2
2022-08-09T00:46:46.325Z,368.4
2022-08-09T00:48:29.707Z,367.8
2022-08-09T00:50:13.107Z,369.2
2022-08-09T00:53:39.570Z,361.7
2022-08-09T00:55:22.971Z,361.7
2022-08-09T00:57:06.378Z,361.3
2022-08-09T00:58:49.768Z,363
2022-08-09T01:00:33.175Z,362.2
2022-08-09T01:02:16.567Z,361.8
2022-08-09T01:03:59.963Z,359.3
2022-08-09T01:05:43.360Z,359.8
2022-08-09T01:07:26.756Z,362.3
2022-08-09T01:10:53.216Z,360.9
2022-08-09T01:12:36.620Z,361.8
2022-08-09T01:14:20.023Z,361.7
2022-08-09T01:16:03.424Z,361.3
2022-08-09T01:17:46.829Z,361.7
2022-08-09T01:19:30.212Z,365.1
2022-08-09T01:21:13.620Z,366.8
2022-08-09T01:22:57.011Z,367.2
2022-08-09T01:28:06.255Z,368.6
2022-08-09T01:29:49.656Z,368.1
2022-08-09T01:31:33.051Z,369.1
2022-08-09T01:33:16.449Z,369.8
2022-08-09T01:34:59.860Z,370.5
2022-08-09T01:36:43.240Z,370.1
2022-08-09T01:38:26.641Z,369.1
2022-08-09T01:40:10.032Z,368.6
2022-08-09T01:41:53.429Z,366.5
2022-08-09T01:45:20.517Z,368.2
2022-08-09T01:47:03.927Z,368
2022-08-09T01:48:47.324Z,366.8
2022-08-09T01:50:30.714Z,366.7
2022-08-09T01:52:14.116Z,368.2
2022-08-09T01:53:57.497Z,369.3
2022-08-09T01:55:40.894Z,369.1
2022-08-09T01:57:24.309Z,370
2022-08-09T02:00:50.763Z,373.3
2022-08-09T02:02:34.178Z,374
2022-08-09T02:04:17.571Z,373.1
2022-08-09T02:06:00.956Z,371.5
2022-08-09T02:07:44.352Z,369.6
2022-08-09T02:09:27.783Z,372.1
2022-08-09T02:11:11.176Z,373.8
2022-08-09T02:12:54.550Z,376.4
2022-08-09T02:18:03.802Z,379.5
2022-08-09T02:19:47.194Z,377.6
2022-08-09T02:21:30.576Z,377.1
2022-08-09T02:23:13.997Z,378.7
2022-08-09T02:24:57.392Z,379.1
2022-08-09T02:26:41.024Z,376.7
2022-08-09T02:28:24.171Z,376
2022-08-09T02:30:07.569Z,374.8
2022-08-09T02:31:50.974Z,375.4
2022-08-09T02:35:17.442Z,375.9
2022-08-09T02:37:00.821Z,375.7
2022-08-09T02:38:44.231Z,374.8
2022-08-09T02:40:27.623Z,375.2
2022-08-09T02:42:11.025Z,374.2
2022-08-09T02:43:54.422Z,374.3
2022-08-09T02:45:37.812Z,373.5
2022-08-09T02:47:21.207Z,375.1
2022-08-09T02:49:04.610Z,374.4
2022-08-09T02:54:13.846Z,380
2022-08-09T02:55:57.246Z,379.6
2022-08-09T02:57:40.642Z,378.7
2022-08-09T02:59:24.039Z,379.5
2022-08-09T03:01:07.432Z,378
2022-08-09T03:02:50.833Z,378.3
2022-08-09T03:04:34.226Z,378.6
2022-08-09T03:06:17.625Z,376.8
2022-08-09T03:08:01.013Z,375.2
2022-08-09T03:11:27.491Z,375.3
2022-08-09T03:13:10.872Z,375.5
2022-08-09T03:14:54.271Z,377.2
2022-08-09T03:16:37.676Z,380
2022-08-09T03:18:21.076Z,379.2
2022-08-09T03:20:04.503Z,378.8
2022-08-09T03:21:47.861Z,377.4
2022-08-09T03:23:31.263Z,375.8
2022-08-09T03:28:40.497Z,369.9
2022-08-09T03:30:23.928Z,366.5
2022-08-09T03:32:07.296Z,368.6
2022-08-09T03:33:50.686Z,368.8
2022-08-09T03:35:34.097Z,367.2
2022-08-09T03:37:17.480Z,367.2
2022-08-09T03:39:00.879Z,365.8
2022-08-09T03:40:44.283Z,366.4
2022-08-09T03:45:53.509Z,367
2022-08-09T03:47:36.919Z,366.4
2022-08-09T03:49:20.309Z,366.2
2022-08-09T03:51:03.713Z,365
2022-08-09T03:52:47.111Z,365
2022-08-09T03:54:30.505Z,365
2022-08-09T03:56:13.898Z,365.1
2022-08-09T03:57:57.300Z,365.6
2022-08-09T03:59:40.692Z,365.4
2022-08-09T04:03:07.152Z,364.1
2022-08-09T04:04:50.583Z,363.4
2022-08-09T04:06:33.959Z,364
2022-08-09T04:08:17.344Z,362.7
2022-08-09T04:10:00.737Z,364.3
2022-08-09T04:11:44.141Z,366.1
2022-08-09T04:13:27.546Z,365.7
2022-08-09T04:15:10.944Z,367.8
2022-08-09T04:20:20.174Z,367.6
2022-08-09T04:22:03.573Z,366.1
2022-08-09T04:23:46.973Z,367.5
2022-08-09T04:25:30.379Z,367.8
2022-08-09T04:27:13.791Z,369
2022-08-09T04:28:57.160Z,369.8
2022-08-09T04:30:40.565Z,370.1
2022-08-09T04:32:23.960Z,370.3
2022-08-09T04:34:07.358Z,371
2022-08-09T04:37:33.824Z,371.7
2022-08-09T04:39:17.234Z,368.4
2022-08-09T04:41:00.634Z,367.2
2022-08-09T04:42:44.035Z,366.7
2022-08-09T04:44:27.410Z,366.2
2022-08-09T04:46:10.818Z,367.2
2022-08-09T04:47:54.201Z,365.5
2022-08-09T04:49:37.606Z,367.1
2022-08-09T04:51:21.006Z,369.4
2022-08-09T04:54:47.476Z,368
2022-08-09T04:56:30.870Z,367.2
2022-08-09T04:58:14.284Z,365
2022-08-09T04:59:57.656Z,364.7
2022-08-09T05:01:41.058Z,367.7
2022-08-09T05:03:24.458Z,368.3
2022-08-09T05:05:07.862Z,367.6
2022-08-09T05:06:51.262Z,365.5
2022-08-09T05:12:00.486Z,364.9
2022-08-09T05:13:43.880Z,364.5
2022-08-09T05:15:27.293Z,364
2022-08-09T05:17:10.679Z,364.7
2022-08-09T05:18:54.079Z,368.1
2022-08-09T05:20:37.471Z,367.3
2022-08-09T05:22:20.873Z,364.8
2022-08-09T05:24:04.313Z,364.1
2022-08-09T05:25:47.675Z,363.3
2022-08-09T05:29:14.139Z,365.1
2022-08-09T05:30:57.528Z,367.1
2022-08-09T05:32:40.936Z,367.5
2022-08-09T05:34:24.336Z,366.8
2022-08-09T05:36:07.736Z,366.8
2022-08-09T05:37:51.133Z,365.8
2022-08-09T05:39:34.522Z,366.6
2022-08-09T05:41:17.915Z,368.1
2022-08-09T05:43:01.313Z,371.7
2022-08-09T05:44:45.081Z,373
2022-08-09T05:46:28.410Z,372.7
2022-08-09T05:48:11.812Z,372.4
2022-08-09T05:49:55.199Z,372.5
2022-08-09T05:51:38.616Z,372.4
2022-08-09T05:53:22.003Z,370.1
2022-08-09T05:55:05.399Z,367.8
2022-08-09T05:56:48.794Z,370.3
2022-08-09T05:58:32.184Z,373.3
2022-08-09T06:01:58.672Z,401.2
2022-08-09T06:03:42.047Z,414.3
2022-08-09T06:05:25.445Z,410.2
2022-08-09T06:07:08.854Z,415.8
2022-08-09T06:08:52.243Z,417.6
2022-08-09T06:10:35.641Z,426.7
2022-08-09T06:12:19.046Z,435.8
2022-08-09T06:14:02.451Z,430
2022-08-09T06:19:11.673Z,398.3
2022-08-09T06:20:55.070Z,394.3
2022-08-09T06:22:38.483Z,395
2022-08-09T06:24:21.861Z,391.8
2022-08-09T06:26:05.256Z,388.5
2022-08-09T06:27:48.663Z,387.4
2022-08-09T06:29:32.067Z,390.1
2022-08-09T06:31:15.455Z,390.1
2022-08-09T06:32:58.851Z,388.8
2022-08-09T06:34:42.557Z,386.7
2022-08-09T06:36:25.947Z,387.7
2022-08-09T06:38:09.343Z,389.4
2022-08-09T06:39:52.750Z,390.4
2022-08-09T06:41:36.140Z,391
2022-08-09T06:43:19.524Z,391.2
2022-08-09T06:45:02.954Z,388.4
2022-08-09T06:46:46.335Z,386.7
2022-08-09T06:48:29.734Z,387.2
2022-08-09T06:51:56.204Z,394.5
2022-08-09T06:53:39.606Z,394.5
2022-08-09T06:55:23.000Z,389.2
2022-08-09T06:57:06.416Z,388.6
2022-08-09T06:58:49.793Z,387.6
2022-08-09T07:00:33.184Z,387
2022-08-09T07:02:16.583Z,387.5
2022-08-09T07:03:59.983Z,386.8
2022-08-09T07:05:43.365Z,384.8
2022-08-09T07:07:27.080Z,384.3
2022-08-09T07:09:10.481Z,382.1
2022-08-09T07:10:53.871Z,380.4
2022-08-09T07:12:37.276Z,379
2022-08-09T07:14:20.675Z,380
2022-08-09T07:16:04.064Z,387.1
2022-08-09T07:17:47.470Z,390.4
2022-08-09T07:19:30.867Z,388.7
2022-08-09T07:21:14.262Z,388.3
2022-08-09T07:24:40.733Z,401.8
2022-08-09T07:26:24.131Z,410.1
2022-08-09T07:28:07.532Z,431.6
2022-08-09T07:29:50.919Z,445.3
2022-08-09T07:31:34.317Z,454.6
2022-08-09T07:33:17.717Z,454.1
2022-08-09T07:35:01.104Z,443.7
2022-08-09T07:36:44.509Z,444.4
2022-08-09T07:41:53.757Z,424.3
2022-08-09T07:43:37.136Z,413.5
2022-08-09T07:45:20.535Z,408
2022-08-09T07:47:03.928Z,403.7
2022-08-09T07:48:47.331Z,406.5
2022-08-09T07:50:30.732Z,411.2
2022-08-09T07:52:14.135Z,415.1
2022-08-09T07:53:57.535Z,419.1
2022-08-09T07:59:06.765Z,414
2022-08-09T08:00:50.151Z,412.7
2022-08-09T08:02:33.562Z,410.1
2022-08-09T08:04:16.975Z,409.6
2022-08-09T08:06:00.366Z,408.2
2022-08-09T08:07:43.766Z,406.3
2022-08-09T08:09:27.154Z,401
2022-08-09T08:11:10.548Z,398.5
2022-08-09T08:16:29.215Z,399.5
2022-08-09T08:18:03.185Z,399.4
2022-08-09T08:19:46.595Z,401.1
2022-08-09T08:21:29.979Z,401.4
2022-08-09T08:23:13.390Z,402.7
2022-08-09T08:24:56.770Z,402
2022-08-09T08:26:40.187Z,404.2
2022-08-09T08:28:23.564Z,406.4
2022-08-09T08:31:50.050Z,404.5
2022-08-09T08:33:33.429Z,404.6
2022-08-09T08:35:16.834Z,412.3
2022-08-09T08:37:00.229Z,414.6
2022-08-09T08:38:43.639Z,417.7
2022-08-09T08:40:27.021Z,421.3
2022-08-09T08:42:10.431Z,419.8
2022-08-09T08:43:53.815Z,412.5
2022-08-09T08:47:20.283Z,404.6
2022-08-09T08:49:03.697Z,402.2
2022-08-09T08:50:47.082Z,403.6
2022-08-09T08:52:30.478Z,402.7
2022-08-09T08:54:13.873Z,402.5
2022-08-09T08:55:57.287Z,404.3
2022-08-09T08:57:40.673Z,404.6
2022-08-09T08:59:24.065Z,402
2022-08-09T09:01:07.778Z,401.3
2022-08-09T09:02:51.177Z,402.3
2022-08-09T09:04:34.576Z,413.7
2022-08-09T09:06:17.958Z,422.6
2022-08-09T09:08:01.365Z,425.5
2022-08-09T09:09:44.757Z,425.5
2022-08-09T09:11:28.163Z,425.4
2022-08-09T09:13:11.557Z,427.3
2022-08-09T09:14:55.262Z,428.6
2022-08-09T09:16:38.655Z,428.8
2022-08-09T09:18:22.046Z,430.4
2022-08-09T09:20:05.441Z,431.8
2022-08-09T09:21:48.844Z,429
2022-08-09T09:23:32.239Z,429.7
2022-08-09T09:25:15.639Z,428.2
2022-08-09T09:26:59.039Z,425.3
2022-08-09T09:30:25.512Z,421.1
2022-08-09T09:32:08.911Z,420.3
2022-08-09T09:33:52.336Z,416.4
2022-08-09T09:35:35.712Z,417
2022-08-09T09:37:19.096Z,414.3
2022-08-09T09:39:02.494Z,413.1
2022-08-09T09:40:45.898Z,413.8
2022-08-09T09:42:29.289Z,411.4
2022-08-09T09:45:55.762Z,407.8
2022-08-09T09:47:39.153Z,404
2022-08-09T09:49:22.546Z,402.5
2022-08-09T09:51:05.936Z,400.4
2022-08-09T09:52:49.337Z,403
2022-08-09T09:54:32.731Z,412.2
2022-08-09T09:56:16.127Z,421.6
2022-08-09T09:57:59.536Z,425.4
2022-08-09T10:01:25.998Z,433.2
2022-08-09T10:03:09.399Z,439.8
2022-08-09T10:04:52.801Z,450.5
2022-08-09T10:06:36.197Z,458.1
2022-08-09T10:08:19.587Z,470.2
2022-08-09T10:10:02.998Z,481.7
2022-08-09T10:11:46.373Z,484.1
2022-08-09T10:13:29.786Z,501.6
2022-08-09T10:16:56.293Z,528.5
2022-08-09T10:18:39.655Z,535
2022-08-09T10:20:23.050Z,534.8
2022-08-09T10:22:06.446Z,523.2
2022-08-09T10:23:49.834Z,512.4
2022-08-09T10:25:33.227Z,504.4
2022-08-09T10:27:16.659Z,508
2022-08-09T10:32:25.865Z,525.2
2022-08-09T10:34:09.274Z,527.8
2022-08-09T10:35:52.660Z,529.2
2022-08-09T10:37:36.069Z,535.7
2022-08-09T10:39:19.445Z,540.7
2022-08-09T10:41:02.858Z,548.5
2022-08-09T10:42:46.267Z,601
2022-08-09T10:44:29.660Z,612.1
2022-08-09T10:47:56.124Z,591.1
2022-08-09T10:49:39.526Z,591.4
2022-08-09T10:51:22.922Z,588.8
2022-08-09T10:53:06.312Z,587.4
2022-08-09T10:54:49.698Z,590.5
2022-08-09T10:56:33.102Z,589.8
2022-08-09T10:58:16.509Z,585.3
2022-08-09T10:59:59.897Z,586.4
2022-08-09T11:01:43.627Z,590.8
2022-08-09T11:03:27.018Z,595.5
2022-08-09T11:05:10.407Z,595.8
2022-08-09T11:06:53.804Z,600.2
2022-08-09T11:08:37.189Z,602.4
2022-08-09T11:10:20.583Z,606.8
2022-08-09T11:12:03.991Z,610
2022-08-09T11:13:47.378Z,610.2
2022-08-09T11:17:13.859Z,618
2022-08-09T11:18:57.237Z,623.2
2022-08-09T11:20:40.665Z,623
2022-08-09T11:22:24.049Z,619.4
2022-08-09T11:24:07.437Z,617
2022-08-09T11:25:50.846Z,616.4
2022-08-09T11:27:34.217Z,617.6
2022-08-09T11:29:17.633Z,619.7
2022-08-09T11:32:44.099Z,622.7
2022-08-09T11:34:27.497Z,624.7
2022-08-09T11:36:10.892Z,626
2022-08-09T11:37:54.286Z,625.4
2022-08-09T11:39:37.676Z,627.3
2022-08-09T11:41:21.084Z,629.7
2022-08-09T11:43:04.474Z,633.2
2022-08-09T11:44:47.887Z,632.7
2022-08-09T11:48:14.352Z,633.9
2022-08-09T11:49:57.742Z,638.2
2022-08-09T11:51:41.145Z,640.6
2022-08-09T11:53:24.531Z,642.7
2022-08-09T11:55:07.936Z,645
2022-08-09T11:56:51.337Z,647.6
2022-08-09T11:58:34.720Z,643.8
2022-08-09T12:00:18.115Z,637.8
2022-08-09T12:03:44.587Z,628.1
2022-08-09T12:05:27.998Z,623.3
2022-08-09T12:07:11.395Z,621.8
2022-08-09T12:08:54.782Z,616.7
2022-08-09T12:10:38.185Z,566.1
2022-08-09T12:12:21.590Z,516.5
2022-08-09T12:14:04.981Z,523.3
2022-08-09T12:15:48.365Z,531.7
2022-08-09T12:19:14.864Z,542.9
2022-08-09T12:20:58.242Z,551.3
2022-08-09T12:22:41.650Z,557.7
2022-08-09T12:24:25.026Z,560.8
2022-08-09T12:26:08.432Z,564.2
2022-08-09T12:27:51.896Z,569.2
2022-08-09T12:29:35.229Z,571.1
2022-08-09T12:31:18.628Z,568.6
2022-08-09T12:34:45.091Z,573.8
2022-08-09T12:36:28.480Z,576.6
2022-08-09T12:38:11.888Z,579.7
2022-08-09T12:39:55.296Z,584.4
2022-08-09T12:41:38.677Z,584.7
2022-08-09T12:43:22.084Z,587.7
2022-08-09T12:45:05.460Z,592.3
2022-08-09T12:46:48.868Z,597.2
2022-08-09T12:48:32.574Z,593.9
2022-08-09T12:50:15.972Z,589.8
2022-08-09T12:51:59.369Z,587.8
2022-08-09T12:53:42.759Z,583.5
2022-08-09T12:55:26.160Z,583.5
2022-08-09T12:57:09.557Z,588
2022-08-09T12:58:52.942Z,592.5
2022-08-09T13:00:36.345Z,593.8
2022-08-09T13:04:02.820Z,604.8
2022-08-09T13:05:46.213Z,612.2
2022-08-09T13:07:29.609Z,615.2
2022-08-09T13:09:13.003Z,615
2022-08-09T13:10:56.395Z,614.4
2022-08-09T13:12:39.793Z,614.3
2022-08-09T13:14:23.189Z,612.6
2022-08-09T13:16:06.591Z,613.2
2022-08-09T13:19:33.063Z,615.9
2022-08-09T13:21:16.455Z,618.6
2022-08-09T13:22:59.861Z,625.5
2022-08-09T13:24:43.253Z,628.3
2022-08-09T13:26:26.647Z,628.4
2022-08-09T13:28:10.045Z,625.7
2022-08-09T13:29:53.436Z,623.8
2022-08-09T13:31:36.843Z,627.1
2022-08-09T13:35:03.329Z,620.6
2022-08-09T13:36:46.722Z,618.5
2022-08-09T13:38:30.123Z,616.8
2022-08-09T13:40:13.513Z,616
2022-08-09T13:41:56.913Z,617
2022-08-09T13:43:40.325Z,615.5
2022-08-09T13:45:23.696Z,614.3
2022-08-09T13:47:07.094Z,615.2
2022-08-09T13:52:18.108Z,616.6
2022-08-09T13:53:59.742Z,616.8
2022-08-09T13:55:43.141Z,615.2
2022-08-09T13:57:26.534Z,619.7
2022-08-09T13:59:09.931Z,620.2
2022-08-09T14:00:53.322Z,621.4
2022-08-09T14:02:36.729Z,624.4
2022-08-09T14:04:20.121Z,628
2022-08-09T14:07:46.617Z,629.2
2022-08-09T14:09:29.994Z,628.3
2022-08-09T14:11:13.387Z,629.2
2022-08-09T14:12:56.778Z,632.6
2022-08-09T14:14:40.182Z,637.1
2022-08-09T14:16:23.574Z,638.1
2022-08-09T14:18:06.981Z,641
2022-08-09T14:19:50.388Z,642
2022-08-09T14:23:16.839Z,646.5
2022-08-09T14:25:00.246Z,644
2022-08-09T14:26:43.638Z,643.3
2022-08-09T14:28:27.031Z,644.5
2022-08-09T14:30:10.434Z,650.1
2022-08-09T14:31:53.832Z,653.7
2022-08-09T14:33:37.216Z,659.3
2022-08-09T14:35:20.627Z,665.4
2022-08-09T14:38:47.086Z,674.8
2022-08-09T14:40:30.498Z,685
2022-08-09T14:42:13.891Z,699.1
2022-08-09T14:43:57.292Z,717
2022-08-09T14:45:40.693Z,731
2022-08-09T14:47:24.076Z,736.5
2022-08-09T14:49:07.468Z,741.6
2022-08-09T14:50:50.870Z,745.8
2022-08-09T14:54:17.358Z,753.4
2022-08-09T14:56:00.760Z,602.1
2022-08-09T14:57:44.145Z,569.6
2022-08-09T14:59:27.545Z,558.6
2022-08-09T15:01:10.927Z,499.1
2022-08-09T15:02:54.326Z,458.3
2022-08-09T15:04:37.717Z,453
2022-08-09T15:06:21.136Z,453.6
2022-08-09T15:09:47.630Z,440.9
2022-08-09T15:11:30.993Z,436.2
2022-08-09T15:13:14.394Z,429.2
2022-08-09T15:14:57.787Z,423.8
2022-08-09T15:16:41.204Z,424.7
2022-08-09T15:18:24.577Z,441
2022-08-09T15:20:07.974Z,461.3
2022-08-09T15:21:51.377Z,456.2
2022-08-09T15:23:35.086Z,459.1
2022-08-09T15:25:18.491Z,468.1
2022-08-09T15:27:01.883Z,475.3
2022-08-09T15:28:45.303Z,478.6
2022-08-09T15:30:28.661Z,484.4
2022-08-09T15:32:12.071Z,485.6
2022-08-09T15:33:55.459Z,487.4
2022-08-09T15:35:38.868Z,488
2022-08-09T15:39:05.339Z,490.8
2022-08-09T15:40:48.739Z,498.8
2022-08-09T15:42:32.117Z,505.8
2022-08-09T15:44:15.522Z,512.2
2022-08-09T15:45:58.928Z,512.1
2022-08-09T15:47:42.309Z,511
2022-08-09T15:49:25.719Z,513
2022-08-09T15:51:09.126Z,519.5
2022-08-09T15:52:52.819Z,519.6
2022-08-09T15:54:36.220Z,524.2
2022-08-09T15:56:19.623Z,526.7
2022-08-09T15:58:03.010Z,534
2022-08-09T15:59:46.668Z,539.8
2022-08-09T16:01:29.814Z,541.1
2022-08-09T16:03:13.203Z,545.2
2022-08-09T16:04:56.599Z,554.8
2022-08-09T16:08:23.080Z,573.4
2022-08-09T16:10:06.472Z,576.5
2022-08-09T16:11:49.886Z,579.4
2022-08-09T16:13:33.264Z,582.1
2022-08-09T16:15:16.662Z,584.7
2022-08-09T16:17:00.070Z,584.8
2022-08-09T16:18:43.456Z,585.8
2022-08-09T16:20:26.849Z,587.5
2022-08-09T16:22:10.546Z,590
2022-08-09T16:23:53.949Z,593.1
2022-08-09T16:25:37.340Z,594.1
2022-08-09T16:27:20.742Z,594.3
2022-08-09T16:29:04.144Z,597.2
2022-08-09T16:30:47.565Z,599.2
2022-08-09T16:32:30.941Z,600.7
2022-08-09T16:34:14.334Z,599.2
2022-08-09T16:35:58.038Z,599.6
2022-08-09T16:37:41.435Z,602.5
2022-08-09T16:39:24.825Z,603.3
2022-08-09T16:41:08.226Z,603.3
2022-08-09T16:42:51.643Z,606.1
2022-08-09T16:44:35.004Z,608.2
2022-08-09T16:46:18.402Z,610.7
2022-08-09T16:48:01.806Z,613.2
2022-08-09T16:49:45.503Z,616
2022-08-09T16:51:28.910Z,616.5
2022-08-09T16:53:12.301Z,619
2022-08-09T16:54:55.697Z,621.7
2022-08-09T16:56:39.090Z,622.5
2022-08-09T16:58:22.481Z,627.1
2022-08-09T17:00:05.887Z,632.5
2022-08-09T17:01:49.269Z,640.1
2022-08-09T17:05:15.745Z,651.8
2022-08-09T17:06:59.159Z,656.5
2022-08-09T17:08:42.547Z,660.5
2022-08-09T17:10:25.976Z,665.8
2022-08-09T17:12:09.341Z,673.6
2022-08-09T17:13:52.735Z,678.8
2022-08-09T17:15:36.127Z,682.8
2022-08-09T17:19:02.615Z,695.3
2022-08-09T17:20:46.002Z,700.8
2022-08-09T17:22:29.387Z,704.1
2022-08-09T17:24:12.795Z,709
2022-08-09T17:25:56.182Z,714
2022-08-09T17:27:39.596Z,717.4
2022-08-09T17:29:22.985Z,724
2022-08-09T17:34:38.047Z,780.5
2022-08-09T17:36:15.638Z,782.7
2022-08-09T17:37:59.022Z,784
2022-08-09T17:39:42.415Z,783.5
2022-08-09T17:41:25.801Z,781.8
2022-08-09T17:43:09.201Z,780.3
2022-08-09T17:44:52.600Z,783.3
2022-08-09T17:50:01.850Z,778.4
2022-08-09T17:51:45.231Z,782.2
2022-08-09T17:53:28.637Z,786.6
2022-08-09T17:55:12.034Z,797.1
2022-08-09T17:56:55.451Z,805.4
2022-08-09T17:58:38.824Z,812.8
2022-08-09T18:00:22.236Z,819.6
2022-08-09T18:05:31.477Z,829.6
2022-08-09T18:07:14.867Z,836.1
2022-08-09T18:08:58.276Z,840.7
2022-08-09T18:10:41.678Z,848.4
2022-08-09T18:12:25.057Z,850.1
2022-08-09T18:14:08.459Z,847.4
2022-08-09T18:15:51.854Z,844.5
2022-08-09T18:21:01.099Z,841.3
2022-08-09T18:22:44.497Z,846.7
2022-08-09T18:24:27.886Z,849.6
2022-08-09T18:26:11.299Z,851.4
2022-08-09T18:27:54.716Z,853.5
2022-08-09T18:29:38.079Z,853
2022-08-09T18:31:21.492Z,848.1
2022-08-09T18:33:04.873Z,844.4
2022-08-09T18:36:31.716Z,839.6
2022-08-09T18:38:14.760Z,832.2
2022-08-09T18:39:58.150Z,827.6
2022-08-09T18:41:41.569Z,816.3
2022-08-09T18:43:24.943Z,802.4
2022-08-09T18:45:08.373Z,752.1
2022-08-09T18:46:51.724Z,731.6
2022-08-09T18:48:35.148Z,751.2
2022-08-09T18:52:01.605Z,760.7
2022-08-09T18:53:45.008Z,762.3
2022-08-09T18:55:28.409Z,755.5
2022-08-09T18:57:11.794Z,751.7
2022-08-09T18:58:55.194Z,747.3
2022-08-09T19:00:38.588Z,745
2022-08-09T19:02:21.988Z,737.6
2022-08-09T19:04:05.395Z,730.7
2022-08-09T19:07:31.860Z,702.1
2022-08-09T19:09:15.258Z,697
2022-08-09T19:10:58.642Z,691.1
2022-08-09T19:12:42.046Z,684.6
2022-08-09T19:14:25.448Z,676.1
2022-08-09T19:16:08.831Z,677.8
2022-08-09T19:17:52.240Z,680
2022-08-09T19:19:35.626Z,682.2
2022-08-09T19:24:44.880Z,667.9
2022-08-09T19:26:28.264Z,668.2
2022-08-09T19:28:11.679Z,666.3
2022-08-09T19:29:55.074Z,666.6
2022-08-09T19:31:38.450Z,665.8
2022-08-09T19:33:21.855Z,657.8
2022-08-09T19:35:05.253Z,654.7
2022-08-09T19:36:48.659Z,654.3
2022-08-09T19:40:15.114Z,654.1
2022-08-09T19:41:58.531Z,654.7
2022-08-09T19:43:41.923Z,653.1
2022-08-09T19:45:25.311Z,649.7
2022-08-09T19:47:08.703Z,645.2
2022-08-09T19:48:52.106Z,639.5
2022-08-09T19:50:35.501Z,636.6
2022-08-09T19:52:18.882Z,633.3
2022-08-09T19:55:45.372Z,630.6
2022-08-09T19:57:28.778Z,628.8
2022-08-09T19:59:12.166Z,629.5
2022-08-09T20:00:55.564Z,625.8
2022-08-09T20:02:38.957Z,620.2
2022-08-09T20:04:22.350Z,615.5
2022-08-09T20:06:05.761Z,614.5
2022-08-09T20:07:49.147Z,615.6
2022-08-09T20:11:15.624Z,614
2022-08-09T20:12:59.000Z,612.7
2022-08-09T20:14:42.467Z,609.6
2022-08-09T20:16:25.811Z,605.4
2022-08-09T20:18:09.203Z,601.3
2022-08-09T20:19:52.606Z,596.2
2022-08-09T20:21:36.004Z,591.4
2022-08-09T20:25:02.464Z,585.7
2022-08-09T20:26:45.877Z,581.3
2022-08-09T20:28:29.263Z,577.8
2022-08-09T20:30:12.674Z,575
2022-08-09T20:31:56.063Z,571
2022-08-09T20:33:39.455Z,567.5
2022-08-09T20:35:22.844Z,565.2
2022-08-09T20:37:06.249Z,563.2
2022-08-09T20:38:49.956Z,562.3
2022-08-09T20:40:33.352Z,559.4
2022-08-09T20:42:16.745Z,555.4
2022-08-09T20:44:00.142Z,554
2022-08-09T20:45:43.534Z,551.4
2022-08-09T20:47:26.935Z,548.8
2022-08-09T20:49:10.337Z,548
2022-08-09T20:50:53.716Z,546.5
2022-08-09T20:54:20.204Z,534.8
2022-08-09T20:56:03.590Z,527.2
2022-08-09T20:57:46.985Z,525.3
2022-08-09T20:59:30.373Z,520.8
2022-08-09T21:01:13.777Z,513.4
2022-08-09T21:02:57.184Z,502.7
2022-08-09T21:04:40.584Z,493.2
2022-08-09T21:06:23.958Z,481.1
2022-08-09T21:09:50.444Z,455.6
2022-08-09T21:13:17.236Z,437.5
2022-08-09T21:15:00.634Z,432.2
2022-08-09T21:16:44.041Z,426.7
2022-08-09T21:18:27.420Z,420.3
2022-08-09T21:20:10.869Z,415.2
2022-08-09T21:21:54.224Z,411
2022-08-09T21:25:20.701Z,403.6
2022-08-09T21:27:04.092Z,402.2
2022-08-09T21:28:47.500Z,399.4
2022-08-09T21:30:30.885Z,398.2
2022-08-09T21:32:14.263Z,395.3
2022-08-09T21:33:57.664Z,392
2022-08-09T21:35:41.056Z,389.5
2022-08-09T21:37:24.470Z,390.1
2022-08-09T21:39:08.177Z,387
2022-08-09T21:40:51.586Z,385.1
2022-08-09T21:42:34.962Z,383.3
2022-08-09T21:44:18.352Z,381.3
2022-08-09T21:46:01.754Z,376.7
2022-08-09T21:47:45.153Z,374.8
2022-08-09T21:49:28.559Z,374
2022-08-09T21:51:13.218Z,372.3
2022-08-09T21:54:38.414Z,371.6
2022-08-09T21:56:21.814Z,371.1
2022-08-09T21:58:05.211Z,366.7
2022-08-09T21:59:48.603Z,365.7
2022-08-09T22:01:31.992Z,363.5
2022-08-09T22:03:15.403Z,362.6
2022-08-09T22:04:58.803Z,363.5
2022-08-09T22:06:42.193Z,364
2022-08-09T22:10:08.673Z,364
2022-08-09T22:11:52.054Z,362.7
2022-08-09T22:13:35.459Z,364.3
2022-08-09T22:15:18.863Z,363.2
2022-08-09T22:17:02.246Z,359.3
2022-08-09T22:18:45.648Z,357.7
2022-08-09T22:20:29.039Z,359
2022-08-09T22:22:12.443Z,357.3
2022-08-09T22:25:38.908Z,360.2
2022-08-09T22:27:22.312Z,362
2022-08-09T22:29:05.702Z,362.4
2022-08-09T22:30:49.097Z,361.5
2022-08-09T22:32:32.508Z,361
2022-08-09T22:34:15.895Z,359.8
2022-08-09T22:35:59.297Z,359.1
2022-08-09T22:37:42.689Z,358.1
2022-08-09T22:41:09.158Z,362.2
2022-08-09T22:42:52.553Z,363.1
2022-08-09T22:44:35.941Z,362.6
2022-08-09T22:46:19.369Z,365.4
2022-08-09T22:48:04.531Z,365.7
2022-08-09T22:49:46.159Z,367.3
2022-08-09T22:51:29.535Z,366.3
2022-08-09T22:53:12.947Z,368.5
2022-08-09T22:58:22.178Z,366.8
2022-08-09T23:00:05.572Z,365.7
2022-08-09T23:01:48.994Z,365.2
2022-08-09T23:03:32.376Z,362.2
2022-08-09T23:05:15.768Z,359.8
2022-08-09T23:06:59.150Z,358.8
2022-08-09T23:08:42.565Z,359
2022-08-09T23:10:25.953Z,357.3
2022-08-09T23:15:35.190Z,359.6
2022-08-09T23:17:18.588Z,358.3
2022-08-09T23:19:01.999Z,358.2
2022-08-09T23:20:45.394Z,359.5
2022-08-09T23:22:28.774Z,360
2022-08-09T23:24:12.188Z,360.5
2022-08-09T23:25:55.580Z,361.4
2022-08-09T23:27:38.978Z,358.7
2022-08-09T23:31:05.445Z,361.8
2022-08-09T23:32:48.844Z,360.1
2022-08-09T23:34:32.239Z,359.8
2022-08-09T23:36:15.637Z,357.7
2022-08-09T23:37:59.029Z,355.5
2022-08-09T23:39:42.425Z,357.8
2022-08-09T23:41:25.837Z,359.2
2022-08-09T23:43:09.230Z,358.7
2022-08-09T23:48:18.465Z,361
2022-08-09T23:50:01.874Z,360.5
2022-08-09T23:51:45.258Z,361.4
2022-08-09T23:53:28.650Z,361.8
2022-08-09T23:55:12.082Z,364
2022-08-09T23:56:55.468Z,362.6
2022-08-09T23:58:38.846Z,364.5
